Nearby METAR Reports

 

KPIA - Peoria, Illinois, USA
Distance from station: SSW 11mi, 18km
Updated: 07/22/2018 8:54am
Mostly cloudy
Mostly cloudy
 Wind from N
Wind: N 8 mph , 13 km/h, Gust: 17 mph , 28 km/h
Temperature: 72°F , 22°C
Dew Point: 64°F , 18°C
Humidity: 78%
Barometer: 29.90 inHg , 1012.5 hPa
Clouds: Mostly cloudy
Visibility: 10 miles , 16 km
Cloud details: Mostly cloudy 1500 ft
2018/07/22 13:54 KPIA 221354Z 01007G15KT 10SM BKN015 22/18 A2990 RMK AO2 SLP118 T02170183
KC75 - Lacon, Illinois, USA
Distance from station: NE 18mi, 30km
Updated: 07/22/2018 9:35am
Overcast
Overcast
 Wind from N
Wind: N 8 mph , 13 km/h
Temperature: 72°F , 22°C
Dew Point: 66°F , 19°C
Humidity: 83%
Barometer: 29.89 inHg , 1012.2 hPa
Clouds: Overcast
Visibility: 10 miles , 16 km
Cloud details: Overcast 1900 ft
2018/07/22 14:35 KC75 221435Z AUTO 36007KT 10SM OVC019 22/19 A2989 RMK AO2 T02160185
 
KGBG - Galesburg, Illinois, USA
Distance from station: W 43mi, 69km
Updated: 07/22/2018 9:35am
Overcast
Overcast
 Wind from N
Wind: N 14 mph , 22 km/h, Gust: 18 mph , 30 km/h
Temperature: 70°F , 21°C
Dew Point: 64°F , 18°C
Humidity: 83%
Barometer: 29.95 inHg , 1014.2 hPa
Clouds: Overcast
Visibility: 10 miles , 16 km
Cloud details: Overcast 1400 ft
2018/07/22 14:35 KGBG 221435Z AUTO 35012G16KT 10SM OVC014 21/18 A2995 RMK AO2 T02100178
KBMI - Bloomington/Norm, Illinois, USA
Distance from station: ESE 44mi, 71km
Updated: 07/22/2018 8:56am
Overcast
Overcast
 Wind from N
Wind: N 17 mph , 28 km/h
Temperature: 70°F , 21°C
Dew Point: 66°F , 19°C
Humidity: 88%
Barometer: 29.87 inHg , 1011.5 hPa
Clouds: Overcast
Visibility: 10 miles , 16 km
Cloud details: Overcast 1100 ft
2018/07/22 13:56 KBMI 221356Z 35015KT 10SM OVC011 21/19 A2987 RMK AO2 SLP129 T02110189
 
KVYS - Peru, Illinois, USA
Distance from station: NNE 44mi, 71km
Updated: 07/22/2018 9:35am
Overcast
Overcast
 Wind from N
Wind: N 17 mph , 28 km/h, Gust: 22 mph , 35 km/h
Temperature: 73°F , 23°C
Dew Point: 66°F , 19°C
Humidity: 78%
Barometer: 29.89 inHg , 1012.2 hPa
Clouds: Overcast
Visibility: 10 miles , 16 km
Cloud details: Overcast 1600 ft
2018/07/22 14:35 KVYS 221435Z AUTO 36015G19KT 10SM OVC016 23/19 A2989 RMK AO2 T02260191
KAAA - Lincoln, Illinois, USA
Distance from station: SSE 48mi, 77km
Updated: 07/22/2018 9:35am
Overcast
Overcast
 Wind from NNW
Wind: NNW 6 mph , 9 km/h
Temperature: 73°F , 23°C
Dew Point: 68°F , 20°C
Humidity: 83%
Barometer: 29.88 inHg , 1011.9 hPa
Clouds: Overcast
Visibility: 10 miles , 16 km
Cloud details: Mostly cloudy 1500 ft
Overcast 2200 ft
2018/07/22 14:35 KAAA 221435Z AUTO 34005KT 10SM BKN015 OVC022 23/20 A2988 RMK AO2 T02270200
 
KPNT - Pontiac, Illinois, USA
Distance from station: E 53mi, 85km
Updated: 07/22/2018 9:35am
Overcast
Overcast
 Wind from N
Wind: N 12 mph , 19 km/h, Gust: 18 mph , 30 km/h
Temperature: 72°F , 22°C
Dew Point: 70°F , 21°C
Humidity: 94%
Barometer: 29.87 inHg , 1011.5 hPa
Clouds: Overcast
Cloud details: Overcast 1800 ft
2018/07/22 14:35 KPNT 221435Z AUTO 01010G16KT OVC018 22/21 A2987 RMK AO2 T02220209 PWINO
KMQB - Macomb Muni, Illinois, USA
Distance from station: WSW 58mi, 93km
Updated: 07/22/2018 9:40am
Overcast
Overcast
 Wind from N
Wind: N 12 mph , 19 km/h
Temperature: 70°F , 21°C
Dew Point: 64°F , 18°C
Humidity: 83%
Barometer: 29.96 inHg , 1014.6 hPa
Clouds: Overcast
Visibility: 10 miles , 16 km
Cloud details: Overcast 1300 ft
2018/07/22 14:40 KMQB 221440Z AUTO 35010KT 10SM OVC013 21/18 A2996 RMK AO2 T02100181
 
KMLI - Moline/Quad City, Illinois, USA
Distance from station: NW 64mi, 103km
Updated: 07/22/2018 8:52am
Overcast
Overcast
 Wind from N
Wind: N 10 mph , 17 km/h, Gust: 16 mph , 26 km/h
Temperature: 70°F , 21°C
Dew Point: 63°F , 17°C
Humidity: 78%
Barometer: 29.94 inHg , 1013.9 hPa
Clouds: Overcast
Visibility: 10 miles , 16 km
Cloud details: Overcast 1800 ft
2018/07/22 13:52 KMLI 221352Z 35009G14KT 10SM OVC018 21/17 A2994 RMK AO2 SLP134 T02110172
KSQI - Sterling Rockfal, Illinois, USA
Distance from station: N 64mi, 103km
Updated: 07/22/2018 8:56am
Overcast
Overcast
 Wind from N
Wind: N 8 mph , 13 km/h, Gust: 17 mph , 28 km/h
Temperature: 70°F , 21°C
Dew Point: 64°F , 18°C
Humidity: 83%
Barometer: 29.92 inHg , 1013.2 hPa
Clouds: Overcast
Visibility: 10 miles , 16 km
Cloud details: Mostly cloudy 1500 ft
Overcast 2000 ft
2018/07/22 13:56 KSQI 221356Z AUTO 36007G15KT 10SM BKN015 OVC020 21/18 A2992 RMK AO2 SLP145 T02110183
 
KSPI - Springfield, Illinois, USA
Distance from station: S 67mi, 108km
Updated: 07/22/2018 9:30am
Overcast
Overcast
 Wind from N
Wind: N 10 mph , 17 km/h
Temperature: 72°F , 22°C
Dew Point: 66°F , 19°C
Humidity: 83%
Barometer: 29.89 inHg , 1012.2 hPa
Clouds: Overcast
Visibility: 10 miles , 16 km
Cloud details: Mostly cloudy 1500 ft
Overcast 2100 ft
2018/07/22 14:30 KSPI 221430Z 35009KT 10SM BKN015 OVC021 22/19 A2989 RMK AO2 T02220194
KDVN - Davenport/Quad C, Iowa, USA
Distance from station: NW 74mi, 120km
Updated: 07/22/2018 8:52am
Overcast
Overcast
 Wind from N
Wind: N 14 mph , 22 km/h, Gust: 21 mph , 33 km/h
Temperature: 68°F , 20°C
Dew Point: 63°F , 17°C
Humidity: 83%
Barometer: 29.96 inHg , 1014.6 hPa
Clouds: Overcast
Visibility: 10 miles , 16 km
Cloud details: Overcast 1500 ft
2018/07/22 13:52 KDVN 221352Z AUTO 36012G18KT 10SM OVC015 20/17 A2996 RMK AO2 SLP140 T02000167